Terminal Aerodrome Forecast
Issued by NWS

Home | Current Version | Previous Version | Graphics & Text | Print | Product List | Glossary On
Versions: 1 2 3 4 5 6 7 8 9 10 11 12 13 14 15 16 17 18 19
000
FTUS43 KABR 200224 AAA
TAFMBG
TAF AMD
KMBG 200224Z 2002/2024 34006KT P6SM FEW100 BKN150
     FM200500 34008KT P6SM VCSH FEW080 BKN100 OVC150
     FM201300 04009KT P6SM BKN200=

USA.gov is the U.S. government's official web portal to all federal, state and local government web resources and services.